Vine Grove, Kentucky
Current Conditions -  °F | °C
As of 3:58 AM on Monday 24 Nov 2014 (Local Time) from KFTK Reporting Station
Overcast Overcast  
Wind Chill: 60°   Ceiling: 2100
Heat Index: 60°   Visibility: 10mi
Dew Point: 56°   Wind: 16mph
Humidity: 86%   Direction: 180°S
Pressure: 29.35"   Gusts: 22mph
Location:  37.81°N, 85.98°W
Report Text: KFTK 240858Z AUTO 18014G19KT 10SM OVC021 16/13 A2935 RMK AO2 SLP939 60002 T01560133 57007
Loading
Personal Weather Stations






























Interactive Weather Map New forecast layout! Learn more

10-Day Weather Forecast

Advertisements
Track Severe Weather on mobile